<?xml version="1.0" encoding="UTF-8" standalone="no" ?>
<gpx xmlns="http://www.topografix.com/GPX/1/1" xmlns:xsi="http://www.w3.org/2001/XMLSchema-instance" xsi:schemaLocation="http://www.topografix.com/GPX/1/1 http://www.topografix.com/GPX/1/1/gpx.xsd" version="1.1" creator="VisuGPX - https://www.visugpx.com">
  <metadata>
    <name>VacancesDricouZoe</name>
  </metadata>
  <trk>
    <name><![CDATA[Journal actif: 2021-07-01 17:19]]></name>
    <trkseg>
      <trkpt lat="44.66022" lon="-1.16819">
        <ele>0.62</ele>
        <time>2021-07-01T19:19:39Z</time>
      </trkpt>
      <trkpt lat="44.66035" lon="-1.16841">
        <ele>1.1</ele>
        <time>2021-07-01T19:19:46Z</time>
      </trkpt>
      <trkpt lat="44.66034" lon="-1.16844">
        <ele>1.1</ele>
        <time>2021-07-01T19:19:47Z</time>
      </trkpt>
      <trkpt lat="44.66033" lon="-1.16847">
        <ele>1.1</ele>
        <time>2021-07-01T19:19:48Z</time>
      </trkpt>
      <trkpt lat="44.6603" lon="-1.16851">
        <ele>0.62</ele>
        <time>2021-07-01T19:19:49Z</time>
      </trkpt>
      <trkpt lat="44.66027" lon="-1.16853">
        <ele>0.62</ele>
        <time>2021-07-01T19:19:50Z</time>
      </trkpt>
      <trkpt lat="44.66018" lon="-1.16853">
        <ele>0.62</ele>
        <time>2021-07-01T19:19:51Z</time>
      </trkpt>
      <trkpt lat="44.66015" lon="-1.1685">
        <ele>0.14</ele>
        <time>2021-07-01T19:19:52Z</time>
      </trkpt>
      <trkpt lat="44.66013" lon="-1.16846">
        <ele>-0.34</ele>
        <time>2021-07-01T19:19:53Z</time>
      </trkpt>
      <trkpt lat="44.66011" lon="-1.16843">
        <ele>-1.3</ele>
        <time>2021-07-01T19:19:54Z</time>
      </trkpt>
      <trkpt lat="44.66009" lon="-1.16835">
        <ele>-1.3</ele>
        <time>2021-07-01T19:19:55Z</time>
      </trkpt>
      <trkpt lat="44.66007" lon="-1.16835">
        <ele>-0.82</ele>
        <time>2021-07-01T19:19:56Z</time>
      </trkpt>
      <trkpt lat="44.66003" lon="-1.16835">
        <ele>0.14</ele>
        <time>2021-07-01T19:19:57Z</time>
      </trkpt>
      <trkpt lat="44.6594" lon="-1.1683">
        <ele>-2.75</ele>
        <time>2021-07-01T19:20:09Z</time>
      </trkpt>
      <trkpt lat="44.65934" lon="-1.16829">
        <ele>-2.75</ele>
        <time>2021-07-01T19:20:10Z</time>
      </trkpt>
      <trkpt lat="44.65826" lon="-1.16821">
        <ele>3.98</ele>
        <time>2021-07-01T19:20:25Z</time>
      </trkpt>
      <trkpt lat="44.6572" lon="-1.16809">
        <ele>17.92</ele>
        <time>2021-07-01T19:20:38Z</time>
      </trkpt>
      <trkpt lat="44.65709" lon="-1.16811">
        <ele>18.88</ele>
        <time>2021-07-01T19:20:40Z</time>
      </trkpt>
      <trkpt lat="44.65709" lon="-1.16811">
        <ele>19.36</ele>
        <time>2021-07-01T19:20:41Z</time>
      </trkpt>
      <trkpt lat="44.65705" lon="-1.16813">
        <ele>20.32</ele>
        <time>2021-07-01T19:20:42Z</time>
      </trkpt>
      <trkpt lat="44.65701" lon="-1.16815">
        <ele>20.81</ele>
        <time>2021-07-01T19:20:43Z</time>
      </trkpt>
      <trkpt lat="44.65694" lon="-1.16821">
        <ele>21.29</ele>
        <time>2021-07-01T19:20:44Z</time>
      </trkpt>
      <trkpt lat="44.65694" lon="-1.16821">
        <ele>21.77</ele>
        <time>2021-07-01T19:20:45Z</time>
      </trkpt>
      <trkpt lat="44.65691" lon="-1.16828">
        <ele>21.77</ele>
        <time>2021-07-01T19:20:46Z</time>
      </trkpt>
      <trkpt lat="44.6569" lon="-1.16834">
        <ele>22.25</ele>
        <time>2021-07-01T19:20:47Z</time>
      </trkpt>
      <trkpt lat="44.6569" lon="-1.1684">
        <ele>22.73</ele>
        <time>2021-07-01T19:20:48Z</time>
      </trkpt>
      <trkpt lat="44.65689" lon="-1.16847">
        <ele>23.21</ele>
        <time>2021-07-01T19:20:49Z</time>
      </trkpt>
      <trkpt lat="44.65687" lon="-1.16873">
        <ele>25.13</ele>
        <time>2021-07-01T19:20:53Z</time>
      </trkpt>
      <trkpt lat="44.65687" lon="-1.1688">
        <ele>26.09</ele>
        <time>2021-07-01T19:20:54Z</time>
      </trkpt>
      <trkpt lat="44.65686" lon="-1.16919">
        <ele>27.53</ele>
        <time>2021-07-01T19:20:59Z</time>
      </trkpt>
      <trkpt lat="44.65685" lon="-1.16946">
        <ele>27.53</ele>
        <time>2021-07-01T19:21:03Z</time>
      </trkpt>
      <trkpt lat="44.65681" lon="-1.17025">
        <ele>25.13</ele>
        <time>2021-07-01T19:21:13Z</time>
      </trkpt>
      <trkpt lat="44.65681" lon="-1.17033">
        <ele>25.13</ele>
        <time>2021-07-01T19:21:14Z</time>
      </trkpt>
      <trkpt lat="44.65677" lon="-1.17127">
        <ele>24.65</ele>
        <time>2021-07-01T19:21:26Z</time>
      </trkpt>
      <trkpt lat="44.65676" lon="-1.17159">
        <ele>24.65</ele>
        <time>2021-07-01T19:21:31Z</time>
      </trkpt>
      <trkpt lat="44.65674" lon="-1.1716">
        <ele>24.65</ele>
        <time>2021-07-01T19:21:32Z</time>
      </trkpt>
      <trkpt lat="44.65674" lon="-1.1716">
        <ele>24.17</ele>
        <time>2021-07-01T19:21:33Z</time>
      </trkpt>
      <trkpt lat="44.65672" lon="-1.17161">
        <ele>23.21</ele>
        <time>2021-07-01T19:21:34Z</time>
      </trkpt>
      <trkpt lat="44.65669" lon="-1.17162">
        <ele>22.73</ele>
        <time>2021-07-01T19:21:35Z</time>
      </trkpt>
      <trkpt lat="44.65667" lon="-1.17163">
        <ele>22.25</ele>
        <time>2021-07-01T19:21:36Z</time>
      </trkpt>
      <trkpt lat="44.65664" lon="-1.17164">
        <ele>21.77</ele>
        <time>2021-07-01T19:21:37Z</time>
      </trkpt>
      <trkpt lat="44.65614" lon="-1.17183">
        <ele>16.48</ele>
        <time>2021-07-01T19:21:50Z</time>
      </trkpt>
      <trkpt lat="44.65568" lon="-1.17199">
        <ele>11.19</ele>
        <time>2021-07-01T19:22:03Z</time>
      </trkpt>
      <trkpt lat="44.65524" lon="-1.17214">
        <ele>8.31</ele>
        <time>2021-07-01T19:22:16Z</time>
      </trkpt>
      <trkpt lat="44.65506" lon="-1.17219">
        <ele>7.83</ele>
        <time>2021-07-01T19:22:25Z</time>
      </trkpt>
      <trkpt lat="44.655" lon="-1.17218">
        <ele>7.83</ele>
        <time>2021-07-01T19:22:26Z</time>
      </trkpt>
      <trkpt lat="44.65499" lon="-1.17215">
        <ele>8.31</ele>
        <time>2021-07-01T19:22:27Z</time>
      </trkpt>
      <trkpt lat="44.65498" lon="-1.17212">
        <ele>8.31</ele>
        <time>2021-07-01T19:22:28Z</time>
      </trkpt>
      <trkpt lat="44.65497" lon="-1.17207">
        <ele>8.79</ele>
        <time>2021-07-01T19:22:29Z</time>
      </trkpt>
      <trkpt lat="44.65496" lon="-1.17203">
        <ele>9.75</ele>
        <time>2021-07-01T19:22:30Z</time>
      </trkpt>
      <trkpt lat="44.65478" lon="-1.17126">
        <ele>13.6</ele>
        <time>2021-07-01T19:22:44Z</time>
      </trkpt>
      <trkpt lat="44.65459" lon="-1.17077">
        <ele>15.04</ele>
        <time>2021-07-01T19:22:54Z</time>
      </trkpt>
      <trkpt lat="44.65457" lon="-1.17071">
        <ele>16</ele>
        <time>2021-07-01T19:22:55Z</time>
      </trkpt>
      <trkpt lat="44.65455" lon="-1.17066">
        <ele>16</ele>
        <time>2021-07-01T19:22:56Z</time>
      </trkpt>
      <trkpt lat="44.6545" lon="-1.16991">
        <ele>18.88</ele>
        <time>2021-07-01T19:23:11Z</time>
      </trkpt>
      <trkpt lat="44.6545" lon="-1.16991">
        <ele>19.84</ele>
        <time>2021-07-01T19:23:16Z</time>
      </trkpt>
      <trkpt lat="44.65449" lon="-1.16983">
        <ele>19.84</ele>
        <time>2021-07-01T19:23:17Z</time>
      </trkpt>
      <trkpt lat="44.65483" lon="-1.16951">
        <ele>25.13</ele>
        <time>2021-07-01T19:23:28Z</time>
      </trkpt>
      <trkpt lat="44.65532" lon="-1.16919">
        <ele>32.34</ele>
        <time>2021-07-01T19:23:42Z</time>
      </trkpt>
      <trkpt lat="44.65572" lon="-1.16885">
        <ele>33.78</ele>
        <time>2021-07-01T19:23:56Z</time>
      </trkpt>
      <trkpt lat="44.65608" lon="-1.16831">
        <ele>31.86</ele>
        <time>2021-07-01T19:24:12Z</time>
      </trkpt>
      <trkpt lat="44.65619" lon="-1.16817">
        <ele>29.46</ele>
        <time>2021-07-01T19:24:21Z</time>
      </trkpt>
      <trkpt lat="44.65656" lon="-1.168">
        <ele>24.65</ele>
        <time>2021-07-01T19:24:35Z</time>
      </trkpt>
      <trkpt lat="44.65681" lon="-1.16803">
        <ele>21.77</ele>
        <time>2021-07-01T19:24:47Z</time>
      </trkpt>
      <trkpt lat="44.65681" lon="-1.16803">
        <ele>21.77</ele>
        <time>2021-07-01T19:24:48Z</time>
      </trkpt>
      <trkpt lat="44.65681" lon="-1.16803">
        <ele>21.77</ele>
        <time>2021-07-01T19:24:49Z</time>
      </trkpt>
      <trkpt lat="44.65692" lon="-1.16798">
        <ele>21.29</ele>
        <time>2021-07-01T19:24:50Z</time>
      </trkpt>
      <trkpt lat="44.65692" lon="-1.16795">
        <ele>21.29</ele>
        <time>2021-07-01T19:24:51Z</time>
      </trkpt>
      <trkpt lat="44.65692" lon="-1.16792">
        <ele>21.29</ele>
        <time>2021-07-01T19:24:52Z</time>
      </trkpt>
      <trkpt lat="44.65692" lon="-1.16788">
        <ele>21.77</ele>
        <time>2021-07-01T19:24:53Z</time>
      </trkpt>
      <trkpt lat="44.65692" lon="-1.16783">
        <ele>21.77</ele>
        <time>2021-07-01T19:24:54Z</time>
      </trkpt>
      <trkpt lat="44.65692" lon="-1.16778">
        <ele>21.29</ele>
        <time>2021-07-01T19:24:55Z</time>
      </trkpt>
      <trkpt lat="44.65692" lon="-1.16772">
        <ele>20.81</ele>
        <time>2021-07-01T19:24:56Z</time>
      </trkpt>
      <trkpt lat="44.65692" lon="-1.16766">
        <ele>20.32</ele>
        <time>2021-07-01T19:24:57Z</time>
      </trkpt>
      <trkpt lat="44.65692" lon="-1.16761">
        <ele>19.84</ele>
        <time>2021-07-01T19:24:58Z</time>
      </trkpt>
    </trkseg>
  </trk>
</gpx>